Time,TemperatureF,DewpointF,PressureIn,WindDirection,WindDirectionDegrees,WindSpeedMPH,WindSpeedGustMPH,Humidity,HourlyPrecipIn,Conditions,Clouds,dailyrainin,SoftwareType,DateUTC
2013-06-02 00:05:00,72.6,66.0,29.83,ENE,66,0.0,-999.0,80,-99.99,,,0.00,weatherlink.com 1.10,2013-06-02 04:05:00,
2013-06-02 00:20:00,72.4,66.0,29.83,East,86,0.0,-999.0,80,-99.99,,,0.00,weatherlink.com 1.10,2013-06-02 04:20:00,
2013-06-02 00:35:00,72.1,66.0,29.83,East,86,1.0,-999.0,81,-99.99,,,0.00,weatherlink.com 1.10,2013-06-02 04:35:00,
2013-06-02 00:50:00,71.8,66.0,29.82,NE,44,0.0,-999.0,82,-99.99,,,0.00,weatherlink.com 1.10,2013-06-02 04:50:00,
2013-06-02 01:05:00,71.7,66.0,29.82,ENE,67,0.0,-999.0,83,-99.99,,,0.00,weatherlink.com 1.10,2013-06-02 05:05:00,
2013-06-02 01:20:00,72.1,66.0,29.82,SSW,210,0.0,-999.0,82,-99.99,,,0.00,weatherlink.com 1.10,2013-06-02 05:20:00,
2013-06-02 01:35:00,72.7,67.0,29.81,SSW,210,0.0,-999.0,82,-99.99,,,0.00,weatherlink.com 1.10,2013-06-02 05:35:00,
2013-06-02 01:50:00,73.0,67.0,29.81,SSE,157,0.0,-999.0,81,-99.99,,,0.00,weatherlink.com 1.10,2013-06-02 05:50:00,
2013-06-02 02:05:00,72.4,67.0,29.80,SSE,157,0.0,-999.0,82,-99.99,,,0.00,weatherlink.com 1.10,2013-06-02 06:05:00,
2013-06-02 02:20:00,72.0,67.0,29.80,SSE,157,0.0,-999.0,83,-99.99,,,0.00,weatherlink.com 1.10,2013-06-02 06:20:00,
2013-06-02 02:35:00,71.4,66.0,29.80,SSE,157,0.0,-999.0,84,-99.99,,,0.00,weatherlink.com 1.10,2013-06-02 06:35:00,
2013-06-02 02:50:00,71.1,66.0,29.79,SSE,157,0.0,-999.0,84,-99.99,,,0.00,weatherlink.com 1.10,2013-06-02 06:50:00,
2013-06-02 03:05:00,70.6,66.0,29.79,SSE,157,0.0,-999.0,85,-99.99,,,0.00,weatherlink.com 1.10,2013-06-02 07:05:00,
2013-06-02 03:20:00,70.2,66.0,29.79,SSE,157,0.0,-999.0,86,-99.99,,,0.00,weatherlink.com 1.10,2013-06-02 07:20:00,
2013-06-02 03:35:00,69.9,66.0,29.79,SSE,157,0.0,-999.0,86,-99.99,,,0.00,weatherlink.com 1.10,2013-06-02 07:35:00,
2013-06-02 03:50:00,69.7,66.0,29.79,SSE,157,0.0,-999.0,87,-99.99,,,0.00,weatherlink.com 1.10,2013-06-02 07:50:00,
2013-06-02 04:05:00,69.5,66.0,29.79,SE,136,0.0,-999.0,87,-99.99,,,0.00,weatherlink.com 1.10,2013-06-02 08:05:00,
2013-06-02 04:20:00,70.0,65.0,29.78,SE,137,0.0,-999.0,85,-99.99,,,0.00,weatherlink.com 1.10,2013-06-02 08:20:00,
2013-06-02 04:35:00,70.8,66.0,29.78,SE,138,0.0,-999.0,84,-99.99,,,0.00,weatherlink.com 1.10,2013-06-02 08:35:00,
2013-06-02 04:50:00,70.9,66.0,29.78,SE,138,0.0,-999.0,84,-99.99,,,0.00,weatherlink.com 1.10,2013-06-02 08:50:00,
2013-06-02 05:05:00,70.8,66.0,29.78,SE,138,0.0,-999.0,84,-99.99,,,0.00,weatherlink.com 1.10,2013-06-02 09:05:00,
2013-06-02 05:20:00,70.6,66.0,29.78,SE,138,0.0,-999.0,84,-99.99,,,0.00,weatherlink.com 1.10,2013-06-02 09:20:00,
2013-06-02 05:35:00,70.6,65.0,29.78,SSE,147,0.0,-999.0,83,-99.99,,,0.00,weatherlink.com 1.10,2013-06-02 09:35:00,
2013-06-02 05:50:00,71.0,65.0,29.78,SW,219,0.0,-999.0,82,-99.99,,,0.00,weatherlink.com 1.10,2013-06-02 09:50:00,
2013-06-02 06:05:00,71.5,65.0,29.78,SSW,196,0.0,-999.0,81,-99.99,,,0.00,weatherlink.com 1.10,2013-06-02 10:05:00,
2013-06-02 06:20:00,71.9,65.0,29.78,SSW,196,0.0,-999.0,80,-99.99,,,0.00,weatherlink.com 1.10,2013-06-02 10:20:00,
2013-06-02 06:35:00,72.2,65.0,29.79,SSW,196,0.0,-999.0,79,-99.99,,,0.00,weatherlink.com 1.10,2013-06-02 10:35:00,
2013-06-02 06:50:00,72.6,66.0,29.79,SSW,196,0.0,-999.0,79,-99.99,,,0.00,weatherlink.com 1.10,2013-06-02 10:50:00,
2013-06-02 07:05:00,73.0,66.0,29.79,SSW,196,0.0,-999.0,78,-99.99,,,0.00,weatherlink.com 1.10,2013-06-02 11:05:00,
2013-06-02 07:20:00,73.6,66.0,29.79,WSW,254,0.0,-999.0,77,-99.99,,,0.00,weatherlink.com 1.10,2013-06-02 11:20:00,
2013-06-02 07:35:00,74.5,67.0,29.79,SW,215,0.0,-999.0,77,-99.99,,,0.00,weatherlink.com 1.10,2013-06-02 11:35:00,
2013-06-02 07:50:00,75.7,66.0,29.79,SSW,192,1.0,-999.0,73,-99.99,,,0.00,weatherlink.com 1.10,2013-06-02 11:50:00,
2013-06-02 08:05:00,77.1,67.0,29.79,WNW,282,0.0,-999.0,71,-99.99,,,0.00,weatherlink.com 1.10,2013-06-02 12:05:00,
2013-06-02 08:20:00,78.5,67.0,29.79,SW,224,0.0,-999.0,68,-99.99,,,0.00,weatherlink.com 1.10,2013-06-02 12:20:00,
2013-06-02 08:35:00,78.9,67.0,29.79,SW,220,2.0,-999.0,66,-99.99,,,0.00,weatherlink.com 1.10,2013-06-02 12:35:00,
2013-06-02 08:50:00,78.9,67.0,29.79,West,273,1.0,-999.0,67,-99.99,,,0.00,weatherlink.com 1.10,2013-06-02 12:50:00,
2013-06-02 09:05:00,78.8,67.0,29.79,WSW,245,4.0,-999.0,67,-99.99,,,0.00,weatherlink.com 1.10,2013-06-02 13:05:00,
2013-06-02 09:20:00,78.6,67.0,29.78,SW,236,6.0,-999.0,67,-99.99,,,0.00,weatherlink.com 1.10,2013-06-02 13:20:00,
2013-06-02 09:35:00,78.4,67.0,29.78,SW,226,3.0,-999.0,68,-99.99,,,0.00,weatherlink.com 1.10,2013-06-02 13:35:00,
2013-06-02 09:51:00,78.4,67.0,29.78,SSW,209,1.0,-999.0,68,-99.99,,,0.00,weatherlink.com 1.10,2013-06-02 13:51:00,
2013-06-02 10:06:00,78.4,67.0,29.78,WSW,246,0.0,-999.0,69,-99.99,,,0.00,weatherlink.com 1.10,2013-06-02 14:06:00,
2013-06-02 10:21:00,78.8,68.0,29.79,SW,224,0.0,-999.0,69,-99.99,,,0.00,weatherlink.com 1.10,2013-06-02 14:21:00,
2013-06-02 10:36:00,79.5,68.0,29.79,SW,223,5.0,-999.0,69,-99.99,,,0.00,weatherlink.com 1.10,2013-06-02 14:36:00,
2013-06-02 10:51:00,79.9,68.0,29.79,SSW,211,0.0,-999.0,68,-99.99,,,0.00,weatherlink.com 1.10,2013-06-02 14:51:00,
2013-06-02 11:06:00,79.8,68.0,29.80,SSW,194,0.0,-999.0,67,-99.99,,,0.00,weatherlink.com 1.10,2013-06-02 15:06:00,
2013-06-02 11:21:00,80.0,68.0,29.80,SSW,195,2.0,-999.0,66,-99.99,,,0.00,weatherlink.com 1.10,2013-06-02 15:21:00,
2013-06-02 11:36:00,79.5,68.0,29.80,SSW,211,3.0,-999.0,67,-99.99,,,0.00,weatherlink.com 1.10,2013-06-02 15:36:00,
2013-06-02 11:51:00,79.2,68.0,29.80,West,259,0.0,-999.0,68,-99.99,,,0.00,weatherlink.com 1.10,2013-06-02 15:51:00,
2013-06-02 12:06:00,79.3,68.0,29.79,SW,234,0.0,-999.0,69,-99.99,,,0.00,weatherlink.com 1.10,2013-06-02 16:06:00,
2013-06-02 12:21:00,79.7,69.0,29.79,SE,146,2.0,-999.0,70,-99.99,,,0.00,weatherlink.com 1.10,2013-06-02 16:21:00,
2013-06-02 12:35:00,80.3,68.8,29.79,SW,233,1.0,4.0,68,0.00,,,0.00,Wunderground v.1.15,2013-06-02 16:35:00,
2013-06-02 12:36:00,80.5,69.0,29.79,SW,226,3.0,-999.0,68,-99.99,,,0.00,weatherlink.com 1.10,2013-06-02 16:36:00,
2013-06-02 12:40:00,80.8,69.2,29.79,West,280,2.0,7.0,68,0.00,,,0.00,Wunderground v.1.15,2013-06-02 16:40:00,
2013-06-02 12:45:00,81.2,69.6,29.79,WSW,242,2.0,5.0,68,0.00,,,0.00,Wunderground v.1.15,2013-06-02 16:45:00,
2013-06-02 12:51:00,82.0,70.0,29.79,West,259,2.0,-999.0,66,-99.99,,,0.00,weatherlink.com 1.10,2013-06-02 16:51:00,
2013-06-02 12:55:00,82.5,70.0,29.79,West,269,4.0,6.0,66,0.00,,,0.00,Wunderground v.1.15,2013-06-02 16:55:00,
2013-06-02 13:00:00,82.8,68.9,29.79,SW,226,4.0,4.0,63,0.00,,,0.00,Wunderground v.1.15,2013-06-02 17:00:00,
2013-06-02 13:05:00,82.8,68.9,29.78,SW,227,4.0,4.0,63,0.00,,,0.00,Wunderground v.1.15,2013-06-02 17:05:00,
2013-06-02 13:07:00,82.8,69.0,29.78,West,279,4.0,-999.0,64,-99.99,,,0.00,weatherlink.com 1.10,2013-06-02 17:07:00,
2013-06-02 13:15:00,83.5,70.0,29.78,West,265,3.0,5.0,64,0.00,,,0.00,Wunderground v.1.15,2013-06-02 17:15:00,
2013-06-02 13:20:00,83.9,68.5,29.77,SW,223,4.0,4.0,60,0.00,,,0.00,Wunderground v.1.15,2013-06-02 17:20:00,
2013-06-02 13:21:00,83.8,68.0,29.77,South,191,0.0,-999.0,60,-99.99,,,0.00,weatherlink.com 1.10,2013-06-02 17:21:00,
2013-06-02 13:30:00,83.2,67.9,29.78,WSW,248,3.0,5.0,60,0.00,,,0.00,Wunderground v.1.15,2013-06-02 17:30:00,
2013-06-02 13:36:00,83.2,69.0,29.77,WNW,295,4.0,-999.0,62,-99.99,,,0.00,weatherlink.com 1.10,2013-06-02 17:36:00,
2013-06-02 13:40:00,83.1,68.7,29.77,SSW,194,4.0,4.0,62,0.00,,,0.00,Wunderground v.1.15,2013-06-02 17:40:00,
2013-06-02 13:45:00,83.2,68.3,29.77,SW,234,4.0,6.0,61,0.00,,,0.00,Wunderground v.1.15,2013-06-02 17:45:00,
2013-06-02 13:50:00,83.2,67.9,29.77,SW,214,4.0,6.0,60,0.00,,,0.00,Wunderground v.1.15,2013-06-02 17:50:00,
2013-06-02 13:52:00,83.2,68.0,29.77,WSW,240,9.0,-999.0,60,-99.99,,,0.00,weatherlink.com 1.10,2013-06-02 17:52:00,
2013-06-02 14:00:00,82.8,68.0,29.77,South,181,5.0,5.0,61,0.00,,,0.00,Wunderground v.1.15,2013-06-02 18:00:00,
2013-06-02 14:05:00,82.8,67.5,29.77,SW,217,5.0,6.0,60,0.00,,,0.00,Wunderground v.1.15,2013-06-02 18:05:00,
2013-06-02 14:08:00,82.8,68.0,29.77,West,259,5.0,-999.0,61,-99.99,,,0.00,weatherlink.com 1.10,2013-06-02 18:08:00,
2013-06-02 14:15:00,82.8,68.0,29.77,SW,215,3.0,6.0,61,0.00,,,0.00,Wunderground v.1.15,2013-06-02 18:15:00,
2013-06-02 14:20:00,82.9,68.1,29.77,West,259,3.0,6.0,61,0.00,,,0.00,Wunderground v.1.15,2013-06-02 18:20:00,
2013-06-02 14:23:00,83.0,68.0,29.77,SW,234,4.0,-999.0,61,-99.99,,,0.00,weatherlink.com 1.10,2013-06-02 18:23:00,
2013-06-02 14:30:00,83.8,69.4,29.77,WSW,240,4.0,4.0,62,0.00,,,0.00,Wunderground v.1.15,2013-06-02 18:30:00,
2013-06-02 14:35:00,84.2,68.8,29.76,South,173,4.0,6.0,60,0.00,,,0.00,Wunderground v.1.15,2013-06-02 18:35:00,
2013-06-02 14:37:00,84.3,69.0,29.76,WNW,285,4.0,-999.0,60,-99.99,,,0.00,weatherlink.com 1.10,2013-06-02 18:37:00,
2013-06-02 14:45:00,83.6,67.8,29.76,WSW,248,4.0,6.0,59,0.00,,,0.00,Wunderground v.1.15,2013-06-02 18:45:00,
2013-06-02 14:50:00,83.0,68.6,29.77,SSW,199,4.0,4.0,62,0.00,,,0.00,Wunderground v.1.15,2013-06-02 18:50:00,
2013-06-02 14:52:00,83.1,68.0,29.77,WSW,242,2.0,-999.0,61,-99.99,,,0.00,weatherlink.com 1.10,2013-06-02 18:52:00,
2013-06-02 15:00:00,84.3,68.4,29.76,SW,234,5.0,7.0,59,0.00,,,0.00,Wunderground v.1.15,2013-06-02 19:00:00,
2013-06-02 15:05:00,84.9,69.5,29.76,SSW,200,5.0,7.0,60,0.00,,,0.00,Wunderground v.1.15,2013-06-02 19:05:00,
2013-06-02 15:07:00,85.2,69.0,29.76,WSW,257,3.0,-999.0,59,-99.99,,,0.00,weatherlink.com 1.10,2013-06-02 19:07:00,
2013-06-02 15:15:00,85.2,69.3,29.76,SSW,205,4.0,7.0,59,0.00,,,0.00,Wunderground v.1.15,2013-06-02 19:15:00,
2013-06-02 15:22:00,85.9,69.0,29.75,SW,228,5.0,-999.0,58,-99.99,,,0.00,weatherlink.com 1.10,2013-06-02 19:22:00,
2013-06-02 15:25:00,86.1,69.1,29.75,SW,232,4.0,7.0,57,0.00,,,0.00,Wunderground v.1.15,2013-06-02 19:25:00,
2013-06-02 15:30:00,86.2,68.7,29.75,SW,217,3.0,3.0,56,0.00,,,0.00,Wunderground v.1.15,2013-06-02 19:30:00,
2013-06-02 15:35:00,86.0,67.4,29.75,WSW,242,3.0,8.0,54,0.00,,,0.00,Wunderground v.1.15,2013-06-02 19:35:00,
2013-06-02 15:39:00,86.2,69.0,29.75,WSW,257,10.0,-999.0,56,-99.99,,,0.00,weatherlink.com 1.10,2013-06-02 19:39:00,
2013-06-02 15:45:00,86.7,68.6,29.75,WSW,247,4.0,6.0,55,0.00,,,0.00,Wunderground v.1.15,2013-06-02 19:45:00,
2013-06-02 15:50:00,87.2,67.4,29.75,West,261,4.0,4.0,52,0.00,,,0.00,Wunderground v.1.15,2013-06-02 19:50:00,
2013-06-02 15:54:00,87.2,67.0,29.75,SW,222,5.0,-999.0,52,-99.99,,,0.00,weatherlink.com 1.10,2013-06-02 19:54:00,
2013-06-02 16:00:00,87.4,67.1,29.74,West,270,4.0,4.0,51,0.00,,,0.00,Wunderground v.1.15,2013-06-02 20:00:00,
2013-06-02 16:09:00,86.9,66.0,29.75,WSW,238,4.0,-999.0,50,-99.99,,,0.00,weatherlink.com 1.10,2013-06-02 20:09:00,
2013-06-02 16:10:00,86.8,65.3,29.75,SW,228,5.0,6.0,49,0.00,,,0.00,Wunderground v.1.15,2013-06-02 20:10:00,
2013-06-02 16:20:00,85.6,66.0,29.74,SSW,208,3.0,10.0,52,0.00,,,0.00,Wunderground v.1.15,2013-06-02 20:20:00,
2013-06-02 16:23:00,85.5,65.0,29.74,WSW,256,1.0,-999.0,51,-99.99,,,0.00,weatherlink.com 1.10,2013-06-02 20:23:00,
2013-06-02 16:25:00,85.4,65.8,29.74,West,268,4.0,10.0,52,0.00,,,0.00,Wunderground v.1.15,2013-06-02 20:25:00,
2013-06-02 16:30:00,85.7,66.0,29.74,West,261,4.0,4.0,52,0.00,,,0.00,Wunderground v.1.15,2013-06-02 20:30:00,
2013-06-02 16:35:00,85.9,65.7,29.74,SW,234,4.0,6.0,51,0.00,,,0.00,Wunderground v.1.15,2013-06-02 20:35:00,
2013-06-02 16:38:00,85.9,66.0,29.74,SSW,200,1.0,-999.0,51,-99.99,,,0.00,weatherlink.com 1.10,2013-06-02 20:38:00,
2013-06-02 16:45:00,86.2,67.1,29.74,SW,219,2.0,6.0,53,0.00,,,0.00,Wunderground v.1.15,2013-06-02 20:45:00,
2013-06-02 16:50:00,86.7,67.5,29.74,SSW,194,2.0,2.0,53,0.00,,,0.00,Wunderground v.1.15,2013-06-02 20:50:00,
2013-06-02 16:55:00,86.9,66.0,29.74,SW,234,3.0,3.0,50,0.00,,,0.00,Wunderground v.1.15,2013-06-02 20:55:00,
2013-06-02 17:00:00,86.4,65.6,29.74,West,273,5.0,6.0,50,0.00,,,0.00,Wunderground v.1.15,2013-06-02 21:00:00,
2013-06-02 17:05:00,86.0,65.8,29.74,SSE,167,4.0,6.0,51,0.00,,,0.00,Wunderground v.1.15,2013-06-02 21:05:00,
2013-06-02 17:10:00,86.0,66.0,29.74,WSW,237,3.0,-999.0,51,-99.99,,,0.00,weatherlink.com 1.10,2013-06-02 21:10:00,
2013-06-02 17:15:00,85.8,65.6,29.74,WSW,238,4.0,6.0,51,0.00,,,0.00,Wunderground v.1.15,2013-06-02 21:15:00,
2013-06-02 17:20:00,85.7,65.5,29.74,WSW,242,4.0,6.0,51,0.00,,,0.00,Wunderground v.1.15,2013-06-02 21:20:00,
2013-06-02 17:24:00,85.7,65.0,29.74,SSW,196,4.0,-999.0,51,-99.99,,,0.00,weatherlink.com 1.10,2013-06-02 21:24:00,
2013-06-02 17:30:00,85.5,64.7,29.73,NNE,17,4.0,6.0,50,0.00,,,0.00,Wunderground v.1.15,2013-06-02 21:30:00,
2013-06-02 17:35:00,85.3,64.6,29.73,West,273,5.0,6.0,50,0.00,,,0.00,Wunderground v.1.15,2013-06-02 21:35:00,
2013-06-02 17:39:00,85.2,65.0,29.73,SW,216,3.0,-999.0,51,-99.99,,,0.00,weatherlink.com 1.10,2013-06-02 21:39:00,
2013-06-02 17:45:00,85.4,65.2,29.73,SSE,160,5.0,6.0,51,0.00,,,0.00,Wunderground v.1.15,2013-06-02 21:45:00,
2013-06-02 17:50:00,85.4,65.2,29.73,SW,223,5.0,5.0,51,0.00,,,0.00,Wunderground v.1.15,2013-06-02 21:50:00,
2013-06-02 17:54:00,85.5,66.0,29.73,SW,216,5.0,-999.0,52,-99.99,,,0.00,weatherlink.com 1.10,2013-06-02 21:54:00,
2013-06-02 18:00:00,85.3,65.1,29.73,SW,234,4.0,4.0,51,0.00,,,0.00,Wunderground v.1.15,2013-06-02 22:00:00,
2013-06-02 18:10:00,85.4,65.8,29.73,WSW,250,3.0,3.0,52,0.00,,,0.00,Wunderground v.1.15,2013-06-02 22:10:00,
2013-06-02 18:11:00,85.4,66.0,29.73,SSW,206,3.0,-999.0,52,-99.99,,,0.00,weatherlink.com 1.10,2013-06-02 22:11:00,
2013-06-02 18:20:00,85.2,65.6,29.73,SSW,201,2.0,2.0,52,0.00,,,0.00,Wunderground v.1.15,2013-06-02 22:20:00,
2013-06-02 18:25:00,84.8,64.7,29.73,West,260,3.0,4.0,51,0.00,,,0.00,Wunderground v.1.15,2013-06-02 22:25:00,
2013-06-02 18:26:00,84.8,65.0,29.73,SSW,211,4.0,-999.0,52,-99.99,,,0.00,weatherlink.com 1.10,2013-06-02 22:26:00,
2013-06-02 18:30:00,84.5,64.9,29.74,West,277,3.0,6.0,52,0.00,,,0.00,Wunderground v.1.15,2013-06-02 22:30:00,
2013-06-02 18:35:00,84.0,64.5,29.74,SSW,212,3.0,6.0,52,0.00,,,0.00,Wunderground v.1.15,2013-06-02 22:35:00,
2013-06-02 18:40:00,83.8,64.8,29.74,SSW,213,3.0,3.0,53,0.00,,,0.00,Wunderground v.1.15,2013-06-02 22:40:00,
2013-06-02 18:41:00,83.7,65.0,29.74,SW,217,6.0,-999.0,53,-99.99,,,0.00,weatherlink.com 1.10,2013-06-02 22:41:00,
2013-06-02 18:50:00,83.3,64.9,29.74,SW,219,2.0,6.0,54,0.00,,,0.00,Wunderground v.1.15,2013-06-02 22:50:00,
2013-06-02 18:55:00,83.0,64.6,29.74,West,268,2.0,6.0,54,0.00,,,0.00,Wunderground v.1.15,2013-06-02 22:55:00,
2013-06-02 18:56:00,83.0,65.0,29.74,WSW,257,4.0,-999.0,55,-99.99,,,0.00,weatherlink.com 1.10,2013-06-02 22:56:00,
2013-06-02 19:05:00,82.6,64.8,29.74,West,264,2.0,6.0,55,0.00,,,0.00,Wunderground v.1.15,2013-06-02 23:05:00,
2013-06-02 19:10:00,82.3,64.5,29.74,WSW,251,2.0,6.0,55,0.00,,,0.00,Wunderground v.1.15,2013-06-02 23:10:00,
2013-06-02 19:11:00,82.3,65.0,29.74,WSW,244,2.0,-999.0,56,-99.99,,,0.00,weatherlink.com 1.10,2013-06-02 23:11:00,
2013-06-02 19:20:00,81.8,65.1,29.74,WSW,249,2.0,6.0,57,0.00,,,0.00,Wunderground v.1.15,2013-06-02 23:20:00,
2013-06-02 19:25:00,81.6,64.9,29.75,West,259,2.0,6.0,57,0.00,,,0.00,Wunderground v.1.15,2013-06-02 23:25:00,
2013-06-02 19:26:00,81.6,65.0,29.75,West,260,3.0,-999.0,57,-99.99,,,0.00,weatherlink.com 1.10,2013-06-02 23:26:00,
2013-06-02 19:35:00,81.1,64.9,29.75,West,261,2.0,4.0,58,0.00,,,0.00,Wunderground v.1.15,2013-06-02 23:35:00,
2013-06-02 19:40:00,80.9,65.2,29.75,WSW,244,2.0,6.0,59,0.00,,,0.00,Wunderground v.1.15,2013-06-02 23:40:00,
2013-06-02 19:41:00,80.9,65.0,29.75,SW,236,0.0,-999.0,59,-99.99,,,0.00,weatherlink.com 1.10,2013-06-02 23:41:00,
2013-06-02 19:50:00,80.6,65.9,29.75,SW,231,1.0,1.0,61,0.00,,,0.00,Wunderground v.1.15,2013-06-02 23:50:00,
2013-06-02 19:55:00,80.3,66.6,29.75,West,269,2.0,2.0,63,0.00,,,0.00,Wunderground v.1.15,2013-06-02 23:55:00,
2013-06-02 19:56:00,80.3,67.0,29.75,West,269,0.0,-999.0,64,-99.99,,,0.00,weatherlink.com 1.10,2013-06-02 23:56:00,
2013-06-02 20:05:00,79.8,67.4,29.75,WSW,250,1.0,6.0,66,0.00,,,0.00,Wunderground v.1.15,2013-06-03 00:05:00,
2013-06-02 20:10:00,79.7,67.8,29.75,WSW,245,0.0,6.0,67,0.00,,,0.00,Wunderground v.1.15,2013-06-03 00:10:00,
2013-06-02 20:11:00,79.6,68.0,29.75,WNW,286,2.0,-999.0,67,-99.99,,,0.00,weatherlink.com 1.10,2013-06-03 00:11:00,
2013-06-02 20:20:00,79.1,67.6,29.75,SW,225,1.0,1.0,68,0.00,,,0.00,Wunderground v.1.15,2013-06-03 00:20:00,
2013-06-02 20:25:00,78.8,67.8,29.75,West,262,1.0,3.0,69,0.00,,,0.00,Wunderground v.1.15,2013-06-03 00:25:00,
2013-06-02 20:26:00,78.8,68.0,29.75,West,262,2.0,-999.0,69,-99.99,,,0.00,weatherlink.com 1.10,2013-06-03 00:26:00,
2013-06-02 20:35:00,78.3,67.3,29.75,West,265,1.0,6.0,69,0.00,,,0.00,Wunderground v.1.15,2013-06-03 00:35:00,
2013-06-02 20:40:00,78.1,67.5,29.75,West,265,1.0,6.0,70,0.00,,,0.00,Wunderground v.1.15,2013-06-03 00:40:00,
2013-06-02 20:41:00,78.0,67.0,29.75,West,265,2.0,-999.0,70,-99.99,,,0.00,weatherlink.com 1.10,2013-06-03 00:41:00,
2013-06-02 20:50:00,77.6,67.0,29.75,West,265,0.0,6.0,70,0.00,,,0.00,Wunderground v.1.15,2013-06-03 00:50:00,
2013-06-02 20:57:00,77.3,67.0,29.76,SSW,209,0.0,-999.0,71,-99.99,,,0.00,weatherlink.com 1.10,2013-06-03 00:57:00,
2013-06-02 21:05:00,77.0,66.9,29.76,WSW,253,1.0,6.0,71,0.00,,,0.00,Wunderground v.1.15,2013-06-03 01:05:00,
2013-06-02 21:10:00,76.8,67.1,29.76,West,263,1.0,1.0,72,0.00,,,0.00,Wunderground v.1.15,2013-06-03 01:10:00,
2013-06-02 21:12:00,76.7,67.0,29.76,West,263,0.0,-999.0,72,-99.99,,,0.00,weatherlink.com 1.10,2013-06-03 01:12:00,
2013-06-02 21:20:00,76.5,66.8,29.76,West,263,0.0,6.0,72,0.00,,,0.00,Wunderground v.1.15,2013-06-03 01:20:00,
2013-06-02 21:25:00,76.4,67.1,29.76,West,263,0.0,6.0,73,0.00,,,0.00,Wunderground v.1.15,2013-06-03 01:25:00,
2013-06-02 21:27:00,76.4,67.0,29.77,West,263,0.0,-999.0,73,-99.99,,,0.00,weatherlink.com 1.10,2013-06-03 01:27:00,
2013-06-02 21:35:00,76.1,66.8,29.77,SSW,200,0.0,6.0,73,0.00,,,0.00,Wunderground v.1.15,2013-06-03 01:35:00,
2013-06-02 21:42:00,75.8,67.0,29.77,SSW,200,0.0,-999.0,73,-99.99,,,0.00,weatherlink.com 1.10,2013-06-03 01:42:00,
2013-06-02 21:50:00,75.1,66.6,29.77,SSW,200,0.0,6.0,75,0.00,,,0.00,Wunderground v.1.15,2013-06-03 01:50:00,
2013-06-02 21:57:00,74.4,66.0,29.77,SSW,200,0.0,-999.0,76,-99.99,,,0.00,weatherlink.com 1.10,2013-06-03 01:57:00,
2013-06-02 22:12:00,73.1,66.0,29.78,SSW,200,0.0,-999.0,79,-99.99,,,0.00,weatherlink.com 1.10,2013-06-03 02:12:00,
2013-06-02 22:27:00,72.6,66.0,29.79,SSW,200,0.0,-999.0,80,-99.99,,,0.00,weatherlink.com 1.10,2013-06-03 02:27:00,
2013-06-02 22:42:00,72.2,66.0,29.79,SSW,200,0.0,-999.0,81,-99.99,,,0.00,weatherlink.com 1.10,2013-06-03 02:42:00,
2013-06-02 22:57:00,71.9,66.0,29.79,SSW,200,0.0,-999.0,82,-99.99,,,0.00,weatherlink.com 1.10,2013-06-03 02:57:00,
2013-06-02 23:12:00,71.5,66.0,29.79,SSW,200,0.0,-999.0,83,-99.99,,,0.00,weatherlink.com 1.10,2013-06-03 03:12:00,
2013-06-02 23:27:00,71.3,66.0,29.80,SSW,200,0.0,-999.0,84,-99.99,,,0.00,weatherlink.com 1.10,2013-06-03 03:27:00,
2013-06-02 23:42:00,71.2,66.0,29.80,SSW,200,0.0,-999.0,84,-99.99,,,0.00,weatherlink.com 1.10,2013-06-03 03:42:00,
2013-06-02 23:57:00,71.0,66.0,29.79,SSW,200,0.0,-999.0,85,-99.99,,,0.00,weatherlink.com 1.10,2013-06-03 03:57:00,